sensor_id;sensor_type;location;lat;lon;timestamp;pressure;altitude;pressure_sealevel;temperature;humidity
8894;BME280;4483;48.622;9.230;2022-10-16T00:01:07;97722.16;;;15.14;100.00
8894;BME280;4483;48.622;9.230;2022-10-16T00:03:34;97736.50;;;15.20;100.00
8894;BME280;4483;48.622;9.230;2022-10-16T00:06:01;97728.91;;;15.17;100.00
8894;BME280;4483;48.622;9.230;2022-10-16T00:08:28;97733.44;;;15.13;100.00
8894;BME280;4483;48.622;9.230;2022-10-16T00:10:59;97730.94;;;15.11;100.00
8894;BME280;4483;48.622;9.230;2022-10-16T00:13:27;97738.81;;;15.10;100.00
8894;BME280;4483;48.622;9.230;2022-10-16T00:15:55;97732.03;;;15.07;100.00
8894;BME280;4483;48.622;9.230;2022-10-16T00:18:22;97738.91;;;15.08;100.00
8894;BME280;4483;48.622;9.230;2022-10-16T00:20:49;97741.53;;;15.08;100.00
8894;BME280;4483;48.622;9.230;2022-10-16T00:23:15;97745.03;;;15.07;100.00
8894;BME280;4483;48.622;9.230;2022-10-16T00:25:42;97753.84;;;15.05;100.00
8894;BME280;4483;48.622;9.230;2022-10-16T00:28:09;97755.69;;;15.03;100.00
8894;BME280;4483;48.622;9.230;2022-10-16T00:30:39;97760.88;;;15.03;100.00
8894;BME280;4483;48.622;9.230;2022-10-16T00:33:06;97749.09;;;14.97;100.00
8894;BME280;4483;48.622;9.230;2022-10-16T00:35:32;97749.19;;;14.96;100.00
8894;BME280;4483;48.622;9.230;2022-10-16T00:37:59;97761.13;;;14.98;100.00
8894;BME280;4483;48.622;9.230;2022-10-16T00:40:25;97753.53;;;14.95;100.00
8894;BME280;4483;48.622;9.230;2022-10-16T00:42:53;97752.72;;;14.95;100.00
8894;BME280;4483;48.622;9.230;2022-10-16T00:45:20;97757.06;;;14.94;100.00
8894;BME280;4483;48.622;9.230;2022-10-16T00:47:48;97746.88;;;14.91;100.00
8894;BME280;4483;48.622;9.230;2022-10-16T00:50:22;97757.34;;;14.90;100.00
8894;BME280;4483;48.622;9.230;2022-10-16T00:52:51;97743.72;;;14.86;100.00
8894;BME280;4483;48.622;9.230;2022-10-16T00:55:19;97749.91;;;14.84;100.00
8894;BME280;4483;48.622;9.230;2022-10-16T00:57:46;97753.34;;;14.84;100.00
8894;BME280;4483;48.622;9.230;2022-10-16T01:00:17;97746.47;;;14.83;100.00
8894;BME280;4483;48.622;9.230;2022-10-16T01:02:44;97751.75;;;14.82;100.00
8894;BME280;4483;48.622;9.230;2022-10-16T01:05:19;97750.19;;;14.79;100.00
8894;BME280;4483;48.622;9.230;2022-10-16T01:07:52;97752.03;;;14.77;100.00
8894;BME280;4483;48.622;9.230;2022-10-16T01:10:27;97765.16;;;14.74;100.00
8894;BME280;4483;48.622;9.230;2022-10-16T01:13:00;97761.81;;;14.72;100.00
8894;BME280;4483;48.622;9.230;2022-10-16T01:15:33;97769.78;;;14.69;100.00
8894;BME280;4483;48.622;9.230;2022-10-16T01:18:04;97764.59;;;14.69;100.00
8894;BME280;4483;48.622;9.230;2022-10-16T01:20:40;97768.28;;;14.65;100.00
8894;BME280;4483;48.622;9.230;2022-10-16T01:23:20;97777.75;;;14.66;100.00
8894;BME280;4483;48.622;9.230;2022-10-16T01:26:18;97770.22;;;14.62;100.00
8894;BME280;4483;48.622;9.230;2022-10-16T01:28:52;97783.09;;;14.63;100.00
8894;BME280;4483;48.622;9.230;2022-10-16T01:31:29;97765.16;;;14.60;100.00
8894;BME280;4483;48.622;9.230;2022-10-16T01:34:02;97772.94;;;14.60;100.00
8894;BME280;4483;48.622;9.230;2022-10-16T01:36:35;97752.53;;;14.54;100.00
8894;BME280;4483;48.622;9.230;2022-10-16T01:39:06;97761.72;;;14.60;100.00
8894;BME280;4483;48.622;9.230;2022-10-16T01:41:38;97761.81;;;14.58;100.00
8894;BME280;4483;48.622;9.230;2022-10-16T01:44:09;97746.88;;;14.48;100.00
8894;BME280;4483;48.622;9.230;2022-10-16T01:46:39;97754.22;;;14.55;100.00
8894;BME280;4483;48.622;9.230;2022-10-16T01:49:08;97768.06;;;14.54;100.00
8894;BME280;4483;48.622;9.230;2022-10-16T01:51:37;97756.31;;;14.49;100.00
8894;BME280;4483;48.622;9.230;2022-10-16T01:54:05;97752.72;;;14.51;100.00
8894;BME280;4483;48.622;9.230;2022-10-16T01:56:35;97751.22;;;14.47;100.00
8894;BME280;4483;48.622;9.230;2022-10-16T01:59:08;97764.72;;;14.52;100.00
8894;BME280;4483;48.622;9.230;2022-10-16T02:01:38;97762.16;;;14.52;100.00
8894;BME280;4483;48.622;9.230;2022-10-16T02:04:13;97751.78;;;14.52;100.00
8894;BME280;4483;48.622;9.230;2022-10-16T02:06:41;97751.06;;;14.50;100.00
8894;BME280;4483;48.622;9.230;2022-10-16T02:09:08;97761.44;;;14.50;100.00
8894;BME280;4483;48.622;9.230;2022-10-16T02:11:35;97745.03;;;14.50;100.00
8894;BME280;4483;48.622;9.230;2022-10-16T02:14:04;97747.53;;;14.51;100.00
8894;BME280;4483;48.622;9.230;2022-10-16T02:16:37;97750.13;;;14.51;100.00
8894;BME280;4483;48.622;9.230;2022-10-16T02:19:05;97746.69;;;14.51;100.00
8894;BME280;4483;48.622;9.230;2022-10-16T02:21:36;97757.25;;;14.48;100.00
8894;BME280;4483;48.622;9.230;2022-10-16T02:24:11;97761.59;;;14.47;100.00
8894;BME280;4483;48.622;9.230;2022-10-16T02:26:48;97759.75;;;14.49;100.00
8894;BME280;4483;48.622;9.230;2022-10-16T02:29:17;97771.09;;;14.47;100.00
8894;BME280;4483;48.622;9.230;2022-10-16T02:31:50;97753.16;;;14.44;100.00
8894;BME280;4483;48.622;9.230;2022-10-16T02:34:21;97750.09;;;14.37;100.00
8894;BME280;4483;48.622;9.230;2022-10-16T02:36:50;97756.03;;;14.39;100.00
8894;BME280;4483;48.622;9.230;2022-10-16T02:39:19;97748.06;;;14.42;100.00
8894;BME280;4483;48.622;9.230;2022-10-16T02:41:47;97741.38;;;14.38;100.00
8894;BME280;4483;48.622;9.230;2022-10-16T02:44:14;97744.06;;;14.37;100.00
8894;BME280;4483;48.622;9.230;2022-10-16T02:46:40;97754.91;;;14.43;100.00
8894;BME280;4483;48.622;9.230;2022-10-16T02:49:08;97751.56;;;14.41;100.00
8894;BME280;4483;48.622;9.230;2022-10-16T02:51:35;97757.69;;;14.40;100.00
8894;BME280;4483;48.622;9.230;2022-10-16T02:54:02;97751.94;;;14.35;100.00
8894;BME280;4483;48.622;9.230;2022-10-16T02:56:28;97762.09;;;14.38;100.00
8894;BME280;4483;48.622;9.230;2022-10-16T02:58:56;97756.16;;;14.36;100.00
8894;BME280;4483;48.622;9.230;2022-10-16T03:01:22;97761.44;;;14.35;100.00
8894;BME280;4483;48.622;9.230;2022-10-16T03:03:49;97765.97;;;14.31;100.00
8894;BME280;4483;48.622;9.230;2022-10-16T03:06:18;97765.78;;;14.34;100.00
8894;BME280;4483;48.622;9.230;2022-10-16T03:08:44;97765.13;;;14.31;100.00
8894;BME280;4483;48.622;9.230;2022-10-16T03:11:11;97771.34;;;14.28;100.00
8894;BME280;4483;48.622;9.230;2022-10-16T03:13:37;97766.38;;;14.24;100.00
8894;BME280;4483;48.622;9.230;2022-10-16T03:16:04;97766.38;;;14.24;100.00
8894;BME280;4483;48.622;9.230;2022-10-16T03:18:30;97769.06;;;14.22;100.00
8894;BME280;4483;48.622;9.230;2022-10-16T03:20:57;97768.13;;;14.23;100.00
8894;BME280;4483;48.622;9.230;2022-10-16T03:23:25;97761.28;;;14.22;100.00
8894;BME280;4483;48.622;9.230;2022-10-16T03:25:52;97761.28;;;14.22;100.00
8894;BME280;4483;48.622;9.230;2022-10-16T03:28:19;97750.06;;;14.22;100.00
8894;BME280;4483;48.622;9.230;2022-10-16T03:30:45;97743.16;;;14.22;100.00
8894;BME280;4483;48.622;9.230;2022-10-16T03:33:12;97751.09;;;14.19;100.00
8894;BME280;4483;48.622;9.230;2022-10-16T03:35:38;97754.94;;;14.12;100.00
8894;BME280;4483;48.622;9.230;2022-10-16T03:38:05;97763.31;;;14.17;100.00
8894;BME280;4483;48.622;9.230;2022-10-16T03:40:33;97765.13;;;14.15;100.00
8894;BME280;4483;48.622;9.230;2022-10-16T03:43:00;97762.56;;;14.15;100.00
8894;BME280;4483;48.622;9.230;2022-10-16T03:45:27;97752.84;;;14.03;100.00
8894;BME280;4483;48.622;9.230;2022-10-16T03:47:53;97759.97;;;14.15;100.00
8894;BME280;4483;48.622;9.230;2022-10-16T03:50:20;97764.22;;;14.16;100.00
8894;BME280;4483;48.622;9.230;2022-10-16T03:52:46;97773.00;;;14.13;100.00
8894;BME280;4483;48.622;9.230;2022-10-16T03:55:13;97784.38;;;14.11;100.00
8894;BME280;4483;48.622;9.230;2022-10-16T03:57:41;97778.34;;;14.10;100.00
8894;BME280;4483;48.622;9.230;2022-10-16T04:00:09;97779.38;;;14.08;100.00
8894;BME280;4483;48.622;9.230;2022-10-16T04:02:36;97782.94;;;14.05;100.00
8894;BME280;4483;48.622;9.230;2022-10-16T04:05:02;97788.97;;;14.06;100.00
8894;BME280;4483;48.622;9.230;2022-10-16T04:07:29;97783.78;;;14.06;100.00
8894;BME280;4483;48.622;9.230;2022-10-16T04:09:56;97788.97;;;14.06;100.00
8894;BME280;4483;48.622;9.230;2022-10-16T04:12:24;97788.97;;;14.06;100.00
8894;BME280;4483;48.622;9.230;2022-10-16T04:14:52;97785.44;;;14.07;100.00
8894;BME280;4483;48.622;9.230;2022-10-16T04:17:18;97789.78;;;14.06;100.00
8894;BME280;4483;48.622;9.230;2022-10-16T04:19:45;97776.16;;;14.03;100.00
8894;BME280;4483;48.622;9.230;2022-10-16T04:22:12;97786.53;;;14.03;100.00
8894;BME280;4483;48.622;9.230;2022-10-16T04:24:38;97794.31;;;14.03;100.00
8894;BME280;4483;48.622;9.230;2022-10-16T04:27:05;97777.84;;;14.04;100.00
8894;BME280;4483;48.622;9.230;2022-10-16T04:29:31;97782.09;;;14.05;100.00
8894;BME280;4483;48.622;9.230;2022-10-16T04:31:59;97786.38;;;14.06;100.00
8894;BME280;4483;48.622;9.230;2022-10-16T04:34:26;97790.63;;;14.07;100.00
8894;BME280;4483;48.622;9.230;2022-10-16T04:36:52;97778.59;;;14.06;100.00
8894;BME280;4483;48.622;9.230;2022-10-16T04:39:19;97783.03;;;14.04;100.00
8894;BME280;4483;48.622;9.230;2022-10-16T04:41:46;97784.59;;;14.06;100.00
8894;BME280;4483;48.622;9.230;2022-10-16T04:44:13;97776.00;;;14.06;100.00
8894;BME280;4483;48.622;9.230;2022-10-16T04:46:39;97791.56;;;14.06;100.00
8894;BME280;4483;48.622;9.230;2022-10-16T04:49:07;97793.22;;;14.07;100.00
8894;BME280;4483;48.622;9.230;2022-10-16T04:51:34;97788.97;;;14.06;100.00
8894;BME280;4483;48.622;9.230;2022-10-16T04:54:00;97785.88;;;13.99;100.00
8894;BME280;4483;48.622;9.230;2022-10-16T04:56:27;97810.59;;;14.05;100.00
8894;BME280;4483;48.622;9.230;2022-10-16T04:58:53;97799.56;;;14.01;100.00
8894;BME280;4483;48.622;9.230;2022-10-16T05:01:20;97806.50;;;14.01;100.00
8894;BME280;4483;48.622;9.230;2022-10-16T05:03:47;97801.31;;;14.01;100.00
8894;BME280;4483;48.622;9.230;2022-10-16T05:06:15;97804.75;;;14.01;100.00
8894;BME280;4483;48.622;9.230;2022-10-16T05:08:41;97807.34;;;14.01;100.00
8894;BME280;4483;48.622;9.230;2022-10-16T05:11:08;97816.81;;;14.02;100.00
8894;BME280;4483;48.622;9.230;2022-10-16T05:13:34;97815.97;;;14.02;100.00
8894;BME280;4483;48.622;9.230;2022-10-16T05:16:01;97816.84;;;14.01;100.00
8894;BME280;4483;48.622;9.230;2022-10-16T05:18:27;97822.13;;;13.99;100.00
8894;BME280;4483;48.622;9.230;2022-10-16T05:20:54;97813.59;;;13.97;100.00
8894;BME280;4483;48.622;9.230;2022-10-16T05:23:22;97810.19;;;13.97;100.00
8894;BME280;4483;48.622;9.230;2022-10-16T05:25:52;97813.03;;;13.92;100.00
8894;BME280;4483;48.622;9.230;2022-10-16T05:28:19;97813.97;;;13.91;100.00
8894;BME280;4483;48.622;9.230;2022-10-16T05:30:46;97820.13;;;13.89;100.00
8894;BME280;4483;48.622;9.230;2022-10-16T05:33:12;97815.94;;;13.86;100.00
8894;BME280;4483;48.622;9.230;2022-10-16T05:35:39;97811.78;;;13.84;100.00
8894;BME280;4483;48.622;9.230;2022-10-16T05:38:06;97816.97;;;13.84;100.00
8894;BME280;4483;48.622;9.230;2022-10-16T05:40:34;97817.03;;;13.82;100.00
8894;BME280;4483;48.622;9.230;2022-10-16T05:43:00;97828.31;;;13.81;100.00
8894;BME280;4483;48.622;9.230;2022-10-16T05:45:27;97835.97;;;13.83;100.00
8894;BME280;4483;48.622;9.230;2022-10-16T05:47:53;97842.09;;;13.82;100.00
8894;BME280;4483;48.622;9.230;2022-10-16T05:50:20;97825.81;;;13.80;100.00
8894;BME280;4483;48.622;9.230;2022-10-16T05:52:47;97841.34;;;13.80;100.00
8894;BME280;4483;48.622;9.230;2022-10-16T05:55:13;97846.34;;;13.83;100.00
8894;BME280;4483;48.622;9.230;2022-10-16T05:57:42;97844.59;;;13.83;100.00
8894;BME280;4483;48.622;9.230;2022-10-16T06:00:10;97841.69;;;13.89;100.00
8894;BME280;4483;48.622;9.230;2022-10-16T06:02:36;97840.53;;;13.95;100.00
8894;BME280;4483;48.622;9.230;2022-10-16T06:05:04;97840.25;;;13.99;100.00
8894;BME280;4483;48.622;9.230;2022-10-16T06:07:33;97838.28;;;14.04;100.00
8894;BME280;4483;48.622;9.230;2022-10-16T06:10:00;97844.78;;;14.11;100.00
8894;BME280;4483;48.622;9.230;2022-10-16T06:12:27;97851.44;;;14.15;100.00
8894;BME280;4483;48.622;9.230;2022-10-16T06:14:55;97849.47;;;14.21;100.00
8894;BME280;4483;48.622;9.230;2022-10-16T06:17:21;97860.41;;;14.26;100.00
8894;BME280;4483;48.622;9.230;2022-10-16T06:19:48;97856.78;;;14.30;100.00
8894;BME280;4483;48.622;9.230;2022-10-16T06:22:14;97859.09;;;14.34;100.00
8894;BME280;4483;48.622;9.230;2022-10-16T06:24:41;97866.03;;;14.49;100.00
8894;BME280;4483;48.622;9.230;2022-10-16T06:27:07;97859.25;;;14.92;100.00
8894;BME280;4483;48.622;9.230;2022-10-16T06:29:34;97859.81;;;15.27;100.00
8894;BME280;4483;48.622;9.230;2022-10-16T06:32:02;97865.78;;;15.57;100.00
8894;BME280;4483;48.622;9.230;2022-10-16T06:34:29;97863.63;;;15.49;100.00
8894;BME280;4483;48.622;9.230;2022-10-16T06:36:56;97865.41;;;15.63;100.00
8894;BME280;4483;48.622;9.230;2022-10-16T06:39:22;97862.75;;;15.35;100.00
8894;BME280;4483;48.622;9.230;2022-10-16T06:41:49;97854.13;;;15.20;100.00
8894;BME280;4483;48.622;9.230;2022-10-16T06:44:16;97873.78;;;15.24;100.00
8894;BME280;4483;48.622;9.230;2022-10-16T06:46:42;97859.31;;;15.20;100.00
8894;BME280;4483;48.622;9.230;2022-10-16T06:49:10;97882.97;;;15.30;100.00
8894;BME280;4483;48.622;9.230;2022-10-16T06:51:37;97886.22;;;15.33;100.00
8894;BME280;4483;48.622;9.230;2022-10-16T06:54:06;97891.16;;;15.38;100.00
8894;BME280;4483;48.622;9.230;2022-10-16T06:56:33;97880.34;;;15.59;100.00
8894;BME280;4483;48.622;9.230;2022-10-16T06:59:00;97880.81;;;15.66;100.00
8894;BME280;4483;48.622;9.230;2022-10-16T07:01:28;97883.50;;;15.64;100.00
8894;BME280;4483;48.622;9.230;2022-10-16T07:03:55;97894.00;;;15.63;100.00
8894;BME280;4483;48.622;9.230;2022-10-16T07:06:24;97891.75;;;15.57;100.00
8894;BME280;4483;48.622;9.230;2022-10-16T07:08:52;97900.00;;;15.49;100.00
8894;BME280;4483;48.622;9.230;2022-10-16T07:11:20;97908.28;;;15.40;100.00
8894;BME280;4483;48.622;9.230;2022-10-16T07:13:48;97907.63;;;15.37;100.00
8894;BME280;4483;48.622;9.230;2022-10-16T07:16:16;97911.28;;;15.34;100.00
8894;BME280;4483;48.622;9.230;2022-10-16T07:18:44;97911.28;;;15.34;100.00
8894;BME280;4483;48.622;9.230;2022-10-16T07:21:13;97916.19;;;15.39;100.00
8894;BME280;4483;48.622;9.230;2022-10-16T07:23:41;97922.06;;;15.42;100.00
8894;BME280;4483;48.622;9.230;2022-10-16T07:26:09;97926.06;;;15.48;100.00
8894;BME280;4483;48.622;9.230;2022-10-16T07:28:36;97931.75;;;15.54;100.00
8894;BME280;4483;48.622;9.230;2022-10-16T07:31:04;97936.66;;;15.59;100.00
8894;BME280;4483;48.622;9.230;2022-10-16T07:33:33;97939.25;;;15.59;100.00
8894;BME280;4483;48.622;9.230;2022-10-16T07:36:00;97953.16;;;15.58;100.00
8894;BME280;4483;48.622;9.230;2022-10-16T07:38:27;97951.41;;;15.58;100.00
8894;BME280;4483;48.622;9.230;2022-10-16T07:41:00;97957.25;;;15.62;100.00
8894;BME280;4483;48.622;9.230;2022-10-16T07:43:27;97953.81;;;15.61;100.00
8894;BME280;4483;48.622;9.230;2022-10-16T07:45:54;97960.66;;;15.62;100.00
8894;BME280;4483;48.622;9.230;2022-10-16T07:48:22;97959.84;;;15.62;100.00
8894;BME280;4483;48.622;9.230;2022-10-16T07:50:48;97962.47;;;15.62;100.00
8894;BME280;4483;48.622;9.230;2022-10-16T07:53:15;97971.81;;;15.64;100.00
8894;BME280;4483;48.622;9.230;2022-10-16T07:55:42;97965.59;;;15.67;100.00
8894;BME280;4483;48.622;9.230;2022-10-16T07:58:10;97967.84;;;15.73;100.00
8894;BME280;4483;48.622;9.230;2022-10-16T08:00:37;97958.03;;;15.78;100.00
8894;BME280;4483;48.622;9.230;2022-10-16T08:03:04;97962.19;;;15.80;100.00
8894;BME280;4483;48.622;9.230;2022-10-16T08:05:31;97964.53;;;15.85;100.00
8894;BME280;4483;48.622;9.230;2022-10-16T08:07:59;97969.53;;;15.88;100.00
8894;BME280;4483;48.622;9.230;2022-10-16T08:10:27;97975.84;;;15.98;100.00
8894;BME280;4483;48.622;9.230;2022-10-16T08:12:54;97970.66;;;15.98;100.00
8894;BME280;4483;48.622;9.230;2022-10-16T08:15:22;97974.47;;;16.06;100.00
8894;BME280;4483;48.622;9.230;2022-10-16T08:17:56;97979.19;;;16.14;100.00
8894;BME280;4483;48.622;9.230;2022-10-16T08:20:23;97981.44;;;16.20;100.00
8894;BME280;4483;48.622;9.230;2022-10-16T08:22:49;97967.41;;;16.23;100.00
8894;BME280;4483;48.622;9.230;2022-10-16T08:25:16;97981.97;;;16.39;100.00
8894;BME280;4483;48.622;9.230;2022-10-16T08:27:43;97977.34;;;16.44;100.00
8894;BME280;4483;48.622;9.230;2022-10-16T08:30:10;97986.78;;;16.59;100.00
8894;BME280;4483;48.622;9.230;2022-10-16T08:32:39;97981.75;;;16.70;100.00
8894;BME280;4483;48.622;9.230;2022-10-16T08:35:07;97987.19;;;16.94;100.00
8894;BME280;4483;48.622;9.230;2022-10-16T08:37:34;97985.06;;;17.13;100.00
8894;BME280;4483;48.622;9.230;2022-10-16T08:40:01;97986.09;;;17.37;100.00
8894;BME280;4483;48.622;9.230;2022-10-16T08:42:46;97995.44;;;17.54;100.00
8894;BME280;4483;48.622;9.230;2022-10-16T08:45:42;97997.13;;;17.67;100.00
8894;BME280;4483;48.622;9.230;2022-10-16T08:48:20;98000.91;;;17.76;100.00
8894;BME280;4483;48.622;9.230;2022-10-16T08:50:51;97993.59;;;17.81;100.00
8894;BME280;4483;48.622;9.230;2022-10-16T08:53:22;98002.16;;;17.83;100.00
8894;BME280;4483;48.622;9.230;2022-10-16T08:55:51;97990.38;;;17.77;100.00
8894;BME280;4483;48.622;9.230;2022-10-16T08:58:20;97997.69;;;17.85;100.00
8894;BME280;4483;48.622;9.230;2022-10-16T09:00:49;98008.00;;;17.86;100.00
8894;BME280;4483;48.622;9.230;2022-10-16T09:03:40;98007.28;;;17.97;100.00
8894;BME280;4483;48.622;9.230;2022-10-16T09:06:35;97997.91;;;18.07;100.00
8894;BME280;4483;48.622;9.230;2022-10-16T09:09:27;98007.38;;;18.21;100.00
8894;BME280;4483;48.622;9.230;2022-10-16T09:12:01;98014.47;;;18.31;100.00
8894;BME280;4483;48.622;9.230;2022-10-16T09:14:49;98010.50;;;18.38;100.00
8894;BME280;4483;48.622;9.230;2022-10-16T09:17:32;98014.28;;;18.47;100.00
8894;BME280;4483;48.622;9.230;2022-10-16T09:20:20;98022.19;;;18.58;100.00
8894;BME280;4483;48.622;9.230;2022-10-16T09:22:52;98021.25;;;18.71;100.00
8894;BME280;4483;48.622;9.230;2022-10-16T09:25:21;98027.88;;;18.88;100.00
8894;BME280;4483;48.622;9.230;2022-10-16T09:27:49;98024.78;;;19.06;100.00
8894;BME280;4483;48.622;9.230;2022-10-16T09:30:20;98025.09;;;19.38;100.00
8894;BME280;4483;48.622;9.230;2022-10-16T09:32:50;98028.38;;;19.87;100.00
8894;BME280;4483;48.622;9.230;2022-10-16T09:35:20;98019.44;;;20.91;100.00
8894;BME280;4483;48.622;9.230;2022-10-16T09:37:50;98022.06;;;21.97;96.48
8894;BME280;4483;48.622;9.230;2022-10-16T09:40:26;98017.47;;;22.10;92.21
8894;BME280;4483;48.622;9.230;2022-10-16T09:42:58;98013.66;;;22.03;88.15
8894;BME280;4483;48.622;9.230;2022-10-16T09:45:27;98008.75;;;21.89;85.70
8894;BME280;4483;48.622;9.230;2022-10-16T09:47:54;98003.00;;;21.95;86.19
8894;BME280;4483;48.622;9.230;2022-10-16T09:50:24;98011.41;;;21.78;84.98
8894;BME280;4483;48.622;9.230;2022-10-16T09:53:03;98020.03;;;21.69;84.28
8894;BME280;4483;48.622;9.230;2022-10-16T09:55:29;98016.97;;;21.64;83.16
8894;BME280;4483;48.622;9.230;2022-10-16T09:57:56;98022.91;;;21.66;83.47
8894;BME280;4483;48.622;9.230;2022-10-16T10:00:24;98016.75;;;22.08;82.43
8894;BME280;4483;48.622;9.230;2022-10-16T10:02:51;98023.09;;;22.56;80.50
8894;BME280;4483;48.622;9.230;2022-10-16T10:05:22;98028.22;;;22.98;78.98
8894;BME280;4483;48.622;9.230;2022-10-16T10:07:55;98022.78;;;23.86;75.52
8894;BME280;4483;48.622;9.230;2022-10-16T10:10:24;98023.97;;;24.30;73.51
8894;BME280;4483;48.622;9.230;2022-10-16T10:12:52;98007.63;;;24.36;70.88
8894;BME280;4483;48.622;9.230;2022-10-16T10:15:19;98019.16;;;24.99;68.19
8894;BME280;4483;48.622;9.230;2022-10-16T10:17:48;98021.50;;;25.64;65.45
8894;BME280;4483;48.622;9.230;2022-10-16T10:20:24;98007.97;;;26.20;62.57
8894;BME280;4483;48.622;9.230;2022-10-16T10:22:52;97999.41;;;26.86;61.01
8894;BME280;4483;48.622;9.230;2022-10-16T10:25:34;98013.94;;;27.31;55.70
8894;BME280;4483;48.622;9.230;2022-10-16T10:28:20;98011.91;;;27.25;54.36
8894;BME280;4483;48.622;9.230;2022-10-16T10:30:54;98015.69;;;27.07;53.89
8894;BME280;4483;48.622;9.230;2022-10-16T10:33:28;98007.34;;;26.60;53.69
8894;BME280;4483;48.622;9.230;2022-10-16T10:36:05;98011.78;;;26.26;54.54
8894;BME280;4483;48.622;9.230;2022-10-16T10:38:45;98011.28;;;26.22;54.52
8894;BME280;4483;48.622;9.230;2022-10-16T10:41:32;97993.84;;;26.12;54.01
8894;BME280;4483;48.622;9.230;2022-10-16T10:44:07;98010.75;;;26.70;53.02
8894;BME280;4483;48.622;9.230;2022-10-16T10:46:41;98009.56;;;27.14;51.45
8894;BME280;4483;48.622;9.230;2022-10-16T10:49:19;98016.97;;;27.52;50.84
8894;BME280;4483;48.622;9.230;2022-10-16T10:52:02;98010.53;;;27.95;50.22
8894;BME280;4483;48.622;9.230;2022-10-16T10:54:39;98000.53;;;28.37;48.94
8894;BME280;4483;48.622;9.230;2022-10-16T10:57:10;98001.84;;;28.65;47.41
8894;BME280;4483;48.622;9.230;2022-10-16T10:59:59;98003.75;;;28.88;47.19
8894;BME280;4483;48.622;9.230;2022-10-16T11:02:35;98000.16;;;29.11;46.47
8894;BME280;4483;48.622;9.230;2022-10-16T11:08:16;97992.34;;;29.10;44.51
8894;BME280;4483;48.622;9.230;2022-10-16T11:10:50;97996.56;;;29.27;44.47
8894;BME280;4483;48.622;9.230;2022-10-16T11:13:30;98005.41;;;29.50;44.43
8894;BME280;4483;48.622;9.230;2022-10-16T11:16:00;97991.66;;;29.69;43.51
8894;BME280;4483;48.622;9.230;2022-10-16T11:18:33;97992.97;;;29.73;43.32
8894;BME280;4483;48.622;9.230;2022-10-16T11:21:06;97992.13;;;29.50;43.03
8894;BME280;4483;48.622;9.230;2022-10-16T11:23:38;97991.69;;;29.08;43.57
8894;BME280;4483;48.622;9.230;2022-10-16T11:26:11;97992.66;;;29.23;43.54
8894;BME280;4483;48.622;9.230;2022-10-16T11:28:44;97957.31;;;29.45;43.05
8894;BME280;4483;48.622;9.230;2022-10-16T11:31:16;97969.69;;;29.52;42.83
8894;BME280;4483;48.622;9.230;2022-10-16T11:33:47;97989.34;;;29.21;42.99
8894;BME280;4483;48.622;9.230;2022-10-16T11:36:19;97990.00;;;28.84;43.27
8894;BME280;4483;48.622;9.230;2022-10-16T11:38:53;97988.63;;;28.41;44.22
8894;BME280;4483;48.622;9.230;2022-10-16T11:41:27;97987.75;;;28.65;43.61
8894;BME280;4483;48.622;9.230;2022-10-16T11:44:14;97992.34;;;29.10;42.57
8894;BME280;4483;48.622;9.230;2022-10-16T11:46:48;97988.00;;;29.47;42.56
8894;BME280;4483;48.622;9.230;2022-10-16T11:49:19;97965.06;;;29.77;41.53
8894;BME280;4483;48.622;9.230;2022-10-16T11:51:51;97971.50;;;29.97;41.11
8894;BME280;4483;48.622;9.230;2022-10-16T11:54:28;97973.72;;;30.08;39.73
8894;BME280;4483;48.622;9.230;2022-10-16T11:57:02;97971.44;;;30.05;39.61
8894;BME280;4483;48.622;9.230;2022-10-16T11:59:35;97972.56;;;30.25;39.71
8894;BME280;4483;48.622;9.230;2022-10-16T12:02:28;97966.28;;;30.55;39.35
8894;BME280;4483;48.622;9.230;2022-10-16T12:05:06;97964.03;;;30.74;38.14
8894;BME280;4483;48.622;9.230;2022-10-16T12:07:43;97958.38;;;30.77;37.99
8894;BME280;4483;48.622;9.230;2022-10-16T12:10:22;97971.84;;;30.75;37.86
8894;BME280;4483;48.622;9.230;2022-10-16T12:12:49;97959.41;;;30.46;38.53
8894;BME280;4483;48.622;9.230;2022-10-16T12:15:23;97964.16;;;30.36;38.72
8894;BME280;4483;48.622;9.230;2022-10-16T12:17:50;97963.53;;;30.34;39.20
8894;BME280;4483;48.622;9.230;2022-10-16T12:20:26;97959.47;;;30.38;38.47
8894;BME280;4483;48.622;9.230;2022-10-16T12:22:56;97966.47;;;30.39;38.38
8894;BME280;4483;48.622;9.230;2022-10-16T12:25:30;97963.44;;;30.42;39.42
8894;BME280;4483;48.622;9.230;2022-10-16T12:28:05;97963.88;;;30.60;39.11
8894;BME280;4483;48.622;9.230;2022-10-16T12:30:35;97964.91;;;30.59;38.93
8894;BME280;4483;48.622;9.230;2022-10-16T12:33:04;97962.88;;;30.61;39.08
8894;BME280;4483;48.622;9.230;2022-10-16T12:35:34;97969.84;;;30.48;39.44
8894;BME280;4483;48.622;9.230;2022-10-16T12:38:15;97966.19;;;30.34;39.51
8894;BME280;4483;48.622;9.230;2022-10-16T12:40:44;97974.97;;;30.35;39.75
8894;BME280;4483;48.622;9.230;2022-10-16T12:43:25;97971.47;;;30.20;39.42
8894;BME280;4483;48.622;9.230;2022-10-16T12:46:04;97972.13;;;30.36;39.71
8894;BME280;4483;48.622;9.230;2022-10-16T12:48:31;97961.50;;;30.36;39.58
8894;BME280;4483;48.622;9.230;2022-10-16T12:51:09;97970.22;;;30.59;39.49
8894;BME280;4483;48.622;9.230;2022-10-16T12:53:36;97968.25;;;30.97;38.61
8894;BME280;4483;48.622;9.230;2022-10-16T12:56:10;97973.03;;;31.02;38.52
8894;BME280;4483;48.622;9.230;2022-10-16T12:58:50;97962.47;;;30.94;38.72
8894;BME280;4483;48.622;9.230;2022-10-16T13:01:28;97967.81;;;30.79;39.10
8894;BME280;4483;48.622;9.230;2022-10-16T13:04:19;97968.63;;;30.80;39.30
8894;BME280;4483;48.622;9.230;2022-10-16T13:06:53;97974.66;;;31.03;39.17
8894;BME280;4483;48.622;9.230;2022-10-16T13:09:40;97968.59;;;31.09;39.10
8894;BME280;4483;48.622;9.230;2022-10-16T13:12:25;97973.94;;;31.09;38.27
8894;BME280;4483;48.622;9.230;2022-10-16T13:15:07;97976.03;;;31.13;38.56
8894;BME280;4483;48.622;9.230;2022-10-16T13:17:44;97983.94;;;31.07;38.31
8894;BME280;4483;48.622;9.230;2022-10-16T13:20:20;97982.75;;;31.09;38.26
8894;BME280;4483;48.622;9.230;2022-10-16T13:22:55;97983.50;;;30.89;38.16
8894;BME280;4483;48.622;9.230;2022-10-16T13:25:34;97985.53;;;30.43;38.32
8894;BME280;4483;48.622;9.230;2022-10-16T13:28:09;97990.00;;;29.68;39.15
8894;BME280;4483;48.622;9.230;2022-10-16T13:30:40;97979.59;;;29.05;39.62
8894;BME280;4483;48.622;9.230;2022-10-16T13:33:13;97992.38;;;28.63;40.92
8894;BME280;4483;48.622;9.230;2022-10-16T13:35:48;97992.97;;;28.26;42.12